sensor_id;sensor_type;location;lat;lon;timestamp;pressure;altitude;pressure_sealevel;temperature;humidity
60170;BME280;46042;49.444;6.862;2022-07-21T00:00:23;98987.88;;;19.76;89.78
60170;BME280;46042;49.444;6.862;2022-07-21T00:02:50;98984.50;;;19.74;89.35
60170;BME280;46042;49.444;6.862;2022-07-21T00:05:17;98991.53;;;19.75;88.92
60170;BME280;46042;49.444;6.862;2022-07-21T00:07:44;98991.69;;;19.73;89.43
60170;BME280;46042;49.444;6.862;2022-07-21T00:10:12;98989.03;;;19.73;89.93
60170;BME280;46042;49.444;6.862;2022-07-21T00:12:39;98986.94;;;19.67;90.01
60170;BME280;46042;49.444;6.862;2022-07-21T00:15:07;98987.13;;;19.66;89.12
60170;BME280;46042;49.444;6.862;2022-07-21T00:17:34;98988.56;;;19.60;88.67
60170;BME280;46042;49.444;6.862;2022-07-21T00:20:02;98990.00;;;19.54;88.10
60170;BME280;46042;49.444;6.862;2022-07-21T00:22:29;98995.19;;;19.56;87.99
60170;BME280;46042;49.444;6.862;2022-07-21T00:24:55;98995.34;;;19.54;87.78
60170;BME280;46042;49.444;6.862;2022-07-21T00:27:22;98991.66;;;19.55;89.28
60170;BME280;46042;49.444;6.862;2022-07-21T00:29:54;98995.50;;;19.53;88.38
60170;BME280;46042;49.444;6.862;2022-07-21T00:32:21;98996.78;;;19.48;88.90
60170;BME280;46042;49.444;6.862;2022-07-21T00:34:47;98995.94;;;19.48;87.00
60170;BME280;46042;49.444;6.862;2022-07-21T00:37:14;98991.59;;;19.47;88.32
60170;BME280;46042;49.444;6.862;2022-07-21T00:39:41;98996.25;;;19.45;87.18
60170;BME280;46042;49.444;6.862;2022-07-21T00:42:07;98980.38;;;19.43;88.48
60170;BME280;46042;49.444;6.862;2022-07-21T00:44:34;98991.66;;;19.37;86.90
60170;BME280;46042;49.444;6.862;2022-07-21T00:47:01;98994.31;;;19.37;89.07
60170;BME280;46042;49.444;6.862;2022-07-21T00:49:30;98994.91;;;19.31;89.67
60170;BME280;46042;49.444;6.862;2022-07-21T00:51:57;99000.00;;;19.24;89.84
60170;BME280;46042;49.444;6.862;2022-07-21T00:54:24;98991.03;;;19.15;90.44
60170;BME280;46042;49.444;6.862;2022-07-21T00:56:51;99000.75;;;19.16;89.59
60170;BME280;46042;49.444;6.862;2022-07-21T00:59:17;98997.28;;;19.06;90.02
60170;BME280;46042;49.444;6.862;2022-07-21T01:01:44;98993.00;;;18.85;93.37
60170;BME280;46042;49.444;6.862;2022-07-21T01:04:11;98995.66;;;18.85;93.27
60170;BME280;46042;49.444;6.862;2022-07-21T01:06:38;98994.53;;;18.78;93.85
60170;BME280;46042;49.444;6.862;2022-07-21T01:09:04;98994.41;;;18.80;nan
60170;BME280;46042;49.444;6.862;2022-07-21T01:11:37;98999.78;;;18.70;93.82
60170;BME280;46042;49.444;6.862;2022-07-21T01:14:03;99001.47;;;18.71;92.51
60170;BME280;46042;49.444;6.862;2022-07-21T01:16:31;99009.22;;;18.54;93.14
60170;BME280;46042;49.444;6.862;2022-07-21T01:18:58;99013.84;;;18.62;92.34
60170;BME280;46042;49.444;6.862;2022-07-21T01:21:31;99022.53;;;18.64;92.26
60170;BME280;46042;49.444;6.862;2022-07-21T01:23:59;99020.56;;;18.66;91.62
60170;BME280;46042;49.444;6.862;2022-07-21T01:26:26;99023.94;;;18.68;91.01
60170;BME280;46042;49.444;6.862;2022-07-21T01:28:54;99025.34;;;18.62;92.98
60170;BME280;46042;49.444;6.862;2022-07-21T01:31:22;99017.91;;;18.66;91.17
60170;BME280;46042;49.444;6.862;2022-07-21T01:33:50;99017.75;;;18.68;90.87
60170;BME280;46042;49.444;6.862;2022-07-21T01:36:17;99015.25;;;18.56;92.99
60170;BME280;46042;49.444;6.862;2022-07-21T01:38:43;99017.50;;;18.61;91.44
60170;BME280;46042;49.444;6.862;2022-07-21T01:41:28;99011.88;;;18.54;93.72
60170;BME280;46042;49.444;6.862;2022-07-21T01:44:03;99004.59;;;18.56;90.64
60170;BME280;46042;49.444;6.862;2022-07-21T01:46:32;99004.59;;;18.56;90.42
60170;BME280;46042;49.444;6.862;2022-07-21T01:48:59;99007.25;;;18.56;91.58
60170;BME280;46042;49.444;6.862;2022-07-21T01:51:26;99009.06;;;18.56;91.68
60170;BME280;46042;49.444;6.862;2022-07-21T01:53:53;99007.38;;;18.55;91.62
60170;BME280;46042;49.444;6.862;2022-07-21T01:56:21;99004.88;;;18.53;89.72
60170;BME280;46042;49.444;6.862;2022-07-21T01:58:49;99013.16;;;18.50;91.32
60170;BME280;46042;49.444;6.862;2022-07-21T02:01:18;99014.97;;;18.50;90.44
60170;BME280;46042;49.444;6.862;2022-07-21T02:03:47;99017.94;;;18.46;90.27
60170;BME280;46042;49.444;6.862;2022-07-21T02:06:14;99013.88;;;18.42;90.94
60170;BME280;46042;49.444;6.862;2022-07-21T02:08:41;99016.81;;;18.39;91.69
60170;BME280;46042;49.444;6.862;2022-07-21T02:11:12;99017.09;;;18.36;91.99
60170;BME280;46042;49.444;6.862;2022-07-21T02:13:39;99012.19;;;18.31;91.43
60170;BME280;46042;49.444;6.862;2022-07-21T02:16:06;99003.66;;;18.28;91.89
60170;BME280;46042;49.444;6.862;2022-07-21T02:18:34;99006.88;;;18.22;94.63
60170;BME280;46042;49.444;6.862;2022-07-21T02:21:01;99009.00;;;18.18;93.43
60170;BME280;46042;49.444;6.862;2022-07-21T02:23:27;99010.81;;;18.17;92.12
60170;BME280;46042;49.444;6.862;2022-07-21T02:25:54;99011.09;;;18.14;93.45
60170;BME280;46042;49.444;6.862;2022-07-21T02:28:21;99010.22;;;18.14;92.11
60170;BME280;46042;49.444;6.862;2022-07-21T02:30:48;99011.09;;;18.14;91.34
60170;BME280;46042;49.444;6.862;2022-07-21T02:33:15;99013.06;;;18.12;92.33
60170;BME280;46042;49.444;6.862;2022-07-21T02:35:42;99016.00;;;18.09;91.56
60170;BME280;46042;49.444;6.862;2022-07-21T02:38:10;99014.16;;;18.10;90.66
60170;BME280;46042;49.444;6.862;2022-07-21T02:40:37;99016.84;;;18.10;92.69
60170;BME280;46042;49.444;6.862;2022-07-21T02:43:05;99014.16;;;18.10;92.92
60170;BME280;46042;49.444;6.862;2022-07-21T02:45:33;99013.19;;;18.11;93.34
60170;BME280;46042;49.444;6.862;2022-07-21T02:50:31;99021.06;;;18.12;93.80
60170;BME280;46042;49.444;6.862;2022-07-21T02:53:01;99021.75;;;18.14;93.70
60170;BME280;46042;49.444;6.862;2022-07-21T02:55:32;99012.78;;;18.15;93.96
60170;BME280;46042;49.444;6.862;2022-07-21T03:00:35;99021.19;;;18.11;92.13
60170;BME280;46042;49.444;6.862;2022-07-21T03:03:02;99014.16;;;18.10;92.91
60170;BME280;46042;49.444;6.862;2022-07-21T03:05:30;99016.00;;;18.09;92.93
60170;BME280;46042;49.444;6.862;2022-07-21T03:07:58;99015.16;;;18.09;92.02
60170;BME280;46042;49.444;6.862;2022-07-21T03:10:25;99012.50;;;18.09;93.50
60170;BME280;46042;49.444;6.862;2022-07-21T03:12:52;99015.31;;;18.07;92.76
60170;BME280;46042;49.444;6.862;2022-07-21T03:15:18;99007.72;;;18.02;93.37
60170;BME280;46042;49.444;6.862;2022-07-21T03:17:45;99005.44;;;17.98;91.93
60170;BME280;46042;49.444;6.862;2022-07-21T03:20:12;99004.19;;;17.92;91.42
60170;BME280;46042;49.444;6.862;2022-07-21T03:22:39;99002.50;;;17.91;92.19
60170;BME280;46042;49.444;6.862;2022-07-21T03:25:06;99007.13;;;17.89;92.27
60170;BME280;46042;49.444;6.862;2022-07-21T03:27:33;99016.38;;;17.85;92.83
60170;BME280;46042;49.444;6.862;2022-07-21T03:30:05;99020.31;;;17.81;93.08
60170;BME280;46042;49.444;6.862;2022-07-21T03:32:34;99021.56;;;17.76;92.45
60170;BME280;46042;49.444;6.862;2022-07-21T03:35:01;99019.88;;;17.75;92.51
60170;BME280;46042;49.444;6.862;2022-07-21T03:37:29;99016.50;;;17.73;93.08
60170;BME280;46042;49.444;6.862;2022-07-21T03:39:56;99024.50;;;17.73;93.52
60170;BME280;46042;49.444;6.862;2022-07-21T03:42:22;99023.50;;;17.74;93.28
60170;BME280;46042;49.444;6.862;2022-07-21T03:44:49;99021.84;;;17.73;93.70
60170;BME280;46042;49.444;6.862;2022-07-21T03:47:15;99021.13;;;17.71;94.05
60170;BME280;46042;49.444;6.862;2022-07-21T03:49:42;99023.09;;;17.69;94.24
60170;BME280;46042;49.444;6.862;2022-07-21T03:52:09;99021.13;;;17.71;95.03
60170;BME280;46042;49.444;6.862;2022-07-21T03:54:35;99028.13;;;17.72;95.31
60170;BME280;46042;49.444;6.862;2022-07-21T03:57:02;99020.16;;;17.72;94.65
60170;BME280;46042;49.444;6.862;2022-07-21T03:59:29;99021.00;;;17.73;94.33
60170;BME280;46042;49.444;6.862;2022-07-21T04:01:55;99023.78;;;17.71;94.31
60170;BME280;46042;49.444;6.862;2022-07-21T04:04:22;99034.44;;;17.71;94.24
60170;BME280;46042;49.444;6.862;2022-07-21T04:06:49;99029.81;;;17.73;94.48
60170;BME280;46042;49.444;6.862;2022-07-21T04:09:15;99036.84;;;17.74;94.87
60170;BME280;46042;49.444;6.862;2022-07-21T04:11:44;99035.72;;;17.77;95.61
60170;BME280;46042;49.444;6.862;2022-07-21T04:14:11;99029.25;;;17.80;95.63
60170;BME280;46042;49.444;6.862;2022-07-21T04:16:38;99034.47;;;17.81;95.54
60170;BME280;46042;49.444;6.862;2022-07-21T04:19:05;99026.34;;;17.83;95.70
60170;BME280;46042;49.444;6.862;2022-07-21T04:21:32;99021.72;;;17.85;95.72
60170;BME280;46042;49.444;6.862;2022-07-21T04:23:58;99019.75;;;17.87;95.73
60170;BME280;46042;49.444;6.862;2022-07-21T04:26:25;99015.25;;;17.87;95.82
60170;BME280;46042;49.444;6.862;2022-07-21T04:28:54;99025.38;;;17.84;94.32
60170;BME280;46042;49.444;6.862;2022-07-21T04:31:22;99025.38;;;17.84;94.62
60170;BME280;46042;49.444;6.862;2022-07-21T04:33:48;99030.41;;;17.87;95.49
60170;BME280;46042;49.444;6.862;2022-07-21T04:36:15;99024.78;;;17.90;95.02
60170;BME280;46042;49.444;6.862;2022-07-21T04:38:42;99028.72;;;17.96;95.26
60170;BME280;46042;49.444;6.862;2022-07-21T04:41:08;99030.88;;;18.02;95.03
60170;BME280;46042;49.444;6.862;2022-07-21T04:43:35;99034.38;;;18.02;94.78
60170;BME280;46042;49.444;6.862;2022-07-21T04:46:02;99030.00;;;18.01;94.61
60170;BME280;46042;49.444;6.862;2022-07-21T04:48:29;99027.34;;;18.01;96.72
60170;BME280;46042;49.444;6.862;2022-07-21T04:50:56;99021.88;;;18.03;96.22
60170;BME280;46042;49.444;6.862;2022-07-21T04:53:23;99023.56;;;18.04;94.62
60170;BME280;46042;49.444;6.862;2022-07-21T04:55:50;99027.22;;;18.03;93.52
60170;BME280;46042;49.444;6.862;2022-07-21T04:58:16;99025.25;;;18.05;93.58
60170;BME280;46042;49.444;6.862;2022-07-21T05:00:43;99036.47;;;18.09;94.51
60170;BME280;46042;49.444;6.862;2022-07-21T05:03:10;99050.09;;;18.15;95.09
60170;BME280;46042;49.444;6.862;2022-07-21T05:05:39;99040.81;;;18.19;94.75
60170;BME280;46042;49.444;6.862;2022-07-21T05:08:06;99037.19;;;18.20;95.14
60170;BME280;46042;49.444;6.862;2022-07-21T05:10:33;99029.75;;;18.24;95.04
60170;BME280;46042;49.444;6.862;2022-07-21T05:13:00;99030.84;;;18.31;95.13
60170;BME280;46042;49.444;6.862;2022-07-21T05:15:27;99035.75;;;18.36;96.00
60170;BME280;46042;49.444;6.862;2022-07-21T05:17:53;99041.66;;;18.40;94.70
60170;BME280;46042;49.444;6.862;2022-07-21T05:20:20;99037.19;;;18.40;93.83
60170;BME280;46042;49.444;6.862;2022-07-21T05:22:46;99041.38;;;18.43;94.55
60170;BME280;46042;49.444;6.862;2022-07-21T05:25:13;99041.94;;;18.46;94.62
60170;BME280;46042;49.444;6.862;2022-07-21T05:27:40;99040.53;;;18.52;93.79
60170;BME280;46042;49.444;6.862;2022-07-21T05:30:07;99044.03;;;18.53;92.49
60170;BME280;46042;49.444;6.862;2022-07-21T05:32:34;99037.44;;;18.67;93.72
60170;BME280;46042;49.444;6.862;2022-07-21T05:35:01;99034.56;;;18.78;94.25
60170;BME280;46042;49.444;6.862;2022-07-21T05:37:28;99037.22;;;18.88;92.27
60170;BME280;46042;49.444;6.862;2022-07-21T05:39:56;99045.38;;;18.86;93.02
60170;BME280;46042;49.444;6.862;2022-07-21T05:42:23;99047.50;;;18.83;92.22
60170;BME280;46042;49.444;6.862;2022-07-21T05:44:49;99049.75;;;18.77;94.19
60170;BME280;46042;49.444;6.862;2022-07-21T05:47:16;99049.03;;;18.85;93.81
60170;BME280;46042;49.444;6.862;2022-07-21T05:49:43;99047.47;;;18.93;93.69
60170;BME280;46042;49.444;6.862;2022-07-21T05:52:09;99060.94;;;18.91;93.19
60170;BME280;46042;49.444;6.862;2022-07-21T05:54:36;99069.38;;;19.06;95.35
60170;BME280;46042;49.444;6.862;2022-07-21T05:57:03;99066.72;;;19.06;92.77
60170;BME280;46042;49.444;6.862;2022-07-21T05:59:30;99072.88;;;18.97;92.69
60170;BME280;46042;49.444;6.862;2022-07-21T06:01:56;99068.25;;;18.89;93.87
60170;BME280;46042;49.444;6.862;2022-07-21T06:04:23;99068.56;;;18.86;91.92
60170;BME280;46042;49.444;6.862;2022-07-21T06:06:50;99070.13;;;18.79;93.40
60170;BME280;46042;49.444;6.862;2022-07-21T06:09:20;99080.53;;;18.72;94.21
60170;BME280;46042;49.444;6.862;2022-07-21T06:11:51;99076.56;;;18.76;94.76
60170;BME280;46042;49.444;6.862;2022-07-21T06:14:18;99070.81;;;18.81;93.20
60170;BME280;46042;49.444;6.862;2022-07-21T06:16:44;99071.84;;;18.60;93.73
60170;BME280;46042;49.444;6.862;2022-07-21T06:19:11;99077.69;;;18.73;93.44
60170;BME280;46042;49.444;6.862;2022-07-21T06:21:38;99071.25;;;18.76;92.11
60170;BME280;46042;49.444;6.862;2022-07-21T06:24:12;99082.91;;;18.75;92.78
60170;BME280;46042;49.444;6.862;2022-07-21T06:26:40;99091.19;;;18.72;94.00
60170;BME280;46042;49.444;6.862;2022-07-21T06:29:06;99094.44;;;18.75;94.12
60170;BME280;46042;49.444;6.862;2022-07-21T06:31:34;99095.25;;;18.86;94.84
60170;BME280;46042;49.444;6.862;2022-07-21T06:34:00;99097.75;;;18.97;95.28
60170;BME280;46042;49.444;6.862;2022-07-21T06:36:27;99097.34;;;19.02;93.07
60170;BME280;46042;49.444;6.862;2022-07-21T06:38:54;99106.06;;;19.04;92.89
60170;BME280;46042;49.444;6.862;2022-07-21T06:41:21;99111.09;;;19.07;93.47
60170;BME280;46042;49.444;6.862;2022-07-21T06:43:47;99106.47;;;19.09;93.83
60170;BME280;46042;49.444;6.862;2022-07-21T06:46:14;99112.19;;;19.14;94.34
60170;BME280;46042;49.444;6.862;2022-07-21T06:48:41;99121.81;;;19.45;91.13
60170;BME280;46042;49.444;6.862;2022-07-21T06:51:08;99121.63;;;19.18;90.57
60170;BME280;46042;49.444;6.862;2022-07-21T06:53:34;99113.03;;;19.25;90.34
60170;BME280;46042;49.444;6.862;2022-07-21T06:56:01;99119.69;;;19.11;91.12
60170;BME280;46042;49.444;6.862;2022-07-21T06:58:30;99115.22;;;19.39;91.17
60170;BME280;46042;49.444;6.862;2022-07-21T07:01:05;99116.72;;;19.52;89.95
60170;BME280;46042;49.444;6.862;2022-07-21T07:03:32;99110.03;;;19.66;88.59
60170;BME280;46042;49.444;6.862;2022-07-21T07:06:01;99112.06;;;20.10;87.20
60170;BME280;46042;49.444;6.862;2022-07-21T07:08:28;99114.59;;;20.29;85.45
60170;BME280;46042;49.444;6.862;2022-07-21T07:10:55;99121.50;;;20.32;85.71
60170;BME280;46042;49.444;6.862;2022-07-21T07:13:22;99131.63;;;20.10;85.33
60170;BME280;46042;49.444;6.862;2022-07-21T07:16:08;99111.97;;;20.74;84.46
60170;BME280;46042;49.444;6.862;2022-07-21T07:18:35;99123.34;;;21.21;87.59
60170;BME280;46042;49.444;6.862;2022-07-21T07:21:03;99130.66;;;20.84;81.66
60170;BME280;46042;49.444;6.862;2022-07-21T07:23:36;99126.31;;;20.83;80.74
60170;BME280;46042;49.444;6.862;2022-07-21T07:26:03;99121.31;;;20.88;82.32
60170;BME280;46042;49.444;6.862;2022-07-21T07:28:30;99120.31;;;20.89;82.15
60170;BME280;46042;49.444;6.862;2022-07-21T07:30:56;99111.84;;;21.28;81.51
60170;BME280;46042;49.444;6.862;2022-07-21T07:33:23;99112.69;;;21.29;77.55
60170;BME280;46042;49.444;6.862;2022-07-21T07:35:51;99114.09;;;21.68;76.84
60170;BME280;46042;49.444;6.862;2022-07-21T07:38:18;99117.03;;;22.08;76.49
60170;BME280;46042;49.444;6.862;2022-07-21T07:40:45;99117.25;;;22.23;77.39
60170;BME280;46042;49.444;6.862;2022-07-21T07:43:11;99123.63;;;21.70;72.99
60170;BME280;46042;49.444;6.862;2022-07-21T07:45:38;99121.88;;;21.87;72.19
60170;BME280;46042;49.444;6.862;2022-07-21T07:48:05;99121.63;;;22.24;71.09
60170;BME280;46042;49.444;6.862;2022-07-21T07:50:32;99124.88;;;22.52;75.04
60170;BME280;46042;49.444;6.862;2022-07-21T07:52:59;99116.75;;;22.36;72.69
60170;BME280;46042;49.444;6.862;2022-07-21T07:55:26;99123.88;;;22.78;75.09
60170;BME280;46042;49.444;6.862;2022-07-21T07:57:52;99124.53;;;22.72;71.48
60170;BME280;46042;49.444;6.862;2022-07-21T08:00:22;99115.06;;;23.18;69.95
60170;BME280;46042;49.444;6.862;2022-07-21T08:03:09;99127.22;;;22.80;69.12
60170;BME280;46042;49.444;6.862;2022-07-21T08:05:35;99126.19;;;22.56;69.72
60170;BME280;46042;49.444;6.862;2022-07-21T08:08:02;99119.19;;;22.64;70.73
60170;BME280;46042;49.444;6.862;2022-07-21T08:10:29;99116.28;;;22.82;75.70
60170;BME280;46042;49.444;6.862;2022-07-21T08:13:13;99113.22;;;23.18;68.39
60170;BME280;46042;49.444;6.862;2022-07-21T08:15:40;99115.09;;;23.74;66.36
60170;BME280;46042;49.444;6.862;2022-07-21T08:18:08;99110.03;;;24.11;68.23
60170;BME280;46042;49.444;6.862;2022-07-21T08:20:36;99116.63;;;24.55;70.40
60170;BME280;46042;49.444;6.862;2022-07-21T08:23:04;99112.38;;;24.37;60.23
60170;BME280;46042;49.444;6.862;2022-07-21T08:25:31;99114.91;;;24.39;62.31
60170;BME280;46042;49.444;6.862;2022-07-21T08:27:58;99122.00;;;23.68;60.69
60170;BME280;46042;49.444;6.862;2022-07-21T08:30:25;99121.75;;;23.86;67.06
60170;BME280;46042;49.444;6.862;2022-07-21T08:32:58;99118.31;;;24.33;63.22
60170;BME280;46042;49.444;6.862;2022-07-21T08:35:26;99114.72;;;24.40;58.70
60170;BME280;46042;49.444;6.862;2022-07-21T08:37:55;99106.44;;;25.04;64.37
60170;BME280;46042;49.444;6.862;2022-07-21T08:40:24;99117.59;;;24.85;58.41
60170;BME280;46042;49.444;6.862;2022-07-21T08:42:53;99110.84;;;25.20;60.08
60170;BME280;46042;49.444;6.862;2022-07-21T08:45:21;99113.00;;;25.39;57.49
60170;BME280;46042;49.444;6.862;2022-07-21T08:47:51;99112.38;;;26.41;64.13
60170;BME280;46042;49.444;6.862;2022-07-21T08:50:19;99119.00;;;25.87;55.33
60170;BME280;46042;49.444;6.862;2022-07-21T08:52:46;99124.22;;;25.28;56.88
60170;BME280;46042;49.444;6.862;2022-07-21T08:55:14;99123.31;;;25.36;59.32
60170;BME280;46042;49.444;6.862;2022-07-21T08:57:41;99121.50;;;24.98;57.96
60170;BME280;46042;49.444;6.862;2022-07-21T09:00:09;99120.31;;;25.46;57.76
60170;BME280;46042;49.444;6.862;2022-07-21T09:02:37;99115.50;;;25.86;52.33
60170;BME280;46042;49.444;6.862;2022-07-21T09:05:06;99117.47;;;25.62;56.74
60170;BME280;46042;49.444;6.862;2022-07-21T09:07:55;99112.72;;;25.79;60.66
60170;BME280;46042;49.444;6.862;2022-07-21T09:10:29;99112.53;;;25.36;54.60
60170;BME280;46042;49.444;6.862;2022-07-21T09:13:02;99113.81;;;25.70;55.69
60170;BME280;46042;49.444;6.862;2022-07-21T09:15:30;99113.06;;;25.91;53.37
60170;BME280;46042;49.444;6.862;2022-07-21T09:18:04;99112.53;;;25.66;61.65
60170;BME280;46042;49.444;6.862;2022-07-21T09:20:38;99115.84;;;25.83;56.96
60170;BME280;46042;49.444;6.862;2022-07-21T09:23:10;99115.00;;;26.34;54.92
60170;BME280;46042;49.444;6.862;2022-07-21T09:25:41;99111.63;;;26.97;57.92
60170;BME280;46042;49.444;6.862;2022-07-21T09:33:24;99120.91;;;26.45;52.14
60170;BME280;46042;49.444;6.862;2022-07-21T09:38:31;99125.22;;;26.39;53.72
60170;BME280;46042;49.444;6.862;2022-07-21T09:41:07;99129.00;;;25.86;52.86
60170;BME280;46042;49.444;6.862;2022-07-21T09:43:38;99136.78;;;25.36;53.13
60170;BME280;46042;49.444;6.862;2022-07-21T09:46:19;99123.50;;;25.34;53.64
60170;BME280;46042;49.444;6.862;2022-07-21T09:48:49;99124.16;;;25.81;55.41
60170;BME280;46042;49.444;6.862;2022-07-21T09:51:37;99123.47;;;25.94;54.52
60170;BME280;46042;49.444;6.862;2022-07-21T09:54:08;99123.00;;;25.91;55.76
60170;BME280;46042;49.444;6.862;2022-07-21T09:56:41;99129.16;;;25.84;53.25
60170;BME280;46042;49.444;6.862;2022-07-21T09:59:09;99125.53;;;25.47;52.34
60170;BME280;46042;49.444;6.862;2022-07-21T10:01:37;99126.00;;;25.81;55.93
60170;BME280;46042;49.444;6.862;2022-07-21T10:04:05;99135.50;;;25.17;52.85
60170;BME280;46042;49.444;6.862;2022-07-21T10:06:36;99137.50;;;24.99;53.87
60170;BME280;46042;49.444;6.862;2022-07-21T10:09:05;99139.50;;;24.59;56.35
60170;BME280;46042;49.444;6.862;2022-07-21T10:11:33;99137.38;;;24.46;58.38
60170;BME280;46042;49.444;6.862;2022-07-21T10:13:59;99139.91;;;24.24;56.88
60170;BME280;46042;49.444;6.862;2022-07-21T10:16:28;99135.59;;;24.15;57.70
60170;BME280;46042;49.444;6.862;2022-07-21T10:19:13;99142.13;;;23.81;58.21
60170;BME280;46042;49.444;6.862;2022-07-21T10:24:13;99134.91;;;24.13;57.96
60170;BME280;46042;49.444;6.862;2022-07-21T10:27:10;99144.78;;;24.52;58.65
60170;BME280;46042;49.444;6.862;2022-07-21T10:29:57;99142.22;;;24.27;57.54
60170;BME280;46042;49.444;6.862;2022-07-21T10:32:36;99137.16;;;24.56;59.22
60170;BME280;46042;49.444;6.862;2022-07-21T10:35:27;99128.88;;;25.19;56.97
60170;BME280;46042;49.444;6.862;2022-07-21T10:37:56;99132.69;;;25.40;58.10
60170;BME280;46042;49.444;6.862;2022-07-21T10:45:34;99122.75;;;25.85;51.56
60170;BME280;46042;49.444;6.862;2022-07-21T10:48:07;99125.56;;;27.01;52.90
60170;BME280;46042;49.444;6.862;2022-07-21T10:50:39;99124.66;;;28.00;55.40
60170;BME280;46042;49.444;6.862;2022-07-21T10:55:46;99114.75;;;27.65;48.15
60170;BME280;46042;49.444;6.862;2022-07-21T11:03:30;99114.19;;;26.84;48.66
60170;BME280;46042;49.444;6.862;2022-07-21T11:14:19;99107.19;;;26.90;47.76
60170;BME280;46042;49.444;6.862;2022-07-21T11:16:56;99109.72;;;26.48;49.89
60170;BME280;46042;49.444;6.862;2022-07-21T11:19:45;99098.66;;;26.21;51.28
60170;BME280;46042;49.444;6.862;2022-07-21T11:22:16;99102.22;;;26.72;52.41
60170;BME280;46042;49.444;6.862;2022-07-21T11:25:19;99101.41;;;26.93;48.37
60170;BME280;46042;49.444;6.862;2022-07-21T11:27:40;99096.97;;;26.63;52.90
60170;BME280;46042;49.444;6.862;2022-07-21T11:30:09;99100.78;;;26.25;49.94
60170;BME280;46042;49.444;6.862;2022-07-21T11:32:36;99095.78;;;25.55;50.78
60170;BME280;46042;49.444;6.862;2022-07-21T11:35:05;99092.78;;;25.80;52.39
60170;BME280;46042;49.444;6.862;2022-07-21T11:37:37;99089.16;;;25.88;50.67
60170;BME280;46042;49.444;6.862;2022-07-21T11:42:39;99087.75;;;26.14;50.07
60170;BME280;46042;49.444;6.862;2022-07-21T11:45:07;99089.97;;;27.26;49.58
60170;BME280;46042;49.444;6.862;2022-07-21T11:47:34;99084.31;;;27.63;45.88
60170;BME280;46042;49.444;6.862;2022-07-21T11:50:04;99076.44;;;28.57;46.59
60170;BME280;46042;49.444;6.862;2022-07-21T11:52:35;99074.34;;;28.66;43.85
60170;BME280;46042;49.444;6.862;2022-07-21T11:55:05;99071.75;;;28.04;46.76
60170;BME280;46042;49.444;6.862;2022-07-21T11:57:33;99076.00;;;27.64;45.53
60170;BME280;46042;49.444;6.862;2022-07-21T12:00:03;99071.25;;;27.31;45.33
60170;BME280;46042;49.444;6.862;2022-07-21T12:02:34;99073.47;;;27.56;46.48
60170;BME280;46042;49.444;6.862;2022-07-21T12:05:03;99063.66;;;27.13;45.57
60170;BME280;46042;49.444;6.862;2022-07-21T12:07:34;99065.81;;;27.24;45.88
60170;BME280;46042;49.444;6.862;2022-07-21T12:10:04;99067.56;;;27.39;45.74
60170;BME280;46042;49.444;6.862;2022-07-21T12:12:51;99068.47;;;27.53;43.31
60170;BME280;46042;49.444;6.862;2022-07-21T12:15:23;99069.47;;;27.10;44.65
60170;BME280;46042;49.444;6.862;2022-07-21T12:17:52;99068.69;;;27.16;45.42
60170;BME280;46042;49.444;6.862;2022-07-21T12:23:01;99066.41;;;27.55;45.37
60170;BME280;46042;49.444;6.862;2022-07-21T12:25:36;99071.47;;;27.36;45.50
60170;BME280;46042;49.444;6.862;2022-07-21T12:28:04;99068.22;;;27.48;46.62
60170;BME280;46042;49.444;6.862;2022-07-21T12:35:29;99074.56;;;28.64;48.59
60170;BME280;46042;49.444;6.862;2022-07-21T12:38:07;99073.34;;;28.87;47.72
60170;BME280;46042;49.444;6.862;2022-07-21T12:40:36;99059.69;;;29.14;45.87
60170;BME280;46042;49.444;6.862;2022-07-21T12:43:19;99055.13;;;29.15;42.32
60170;BME280;46042;49.444;6.862;2022-07-21T12:48:27;99059.34;;;30.08;41.26
60170;BME280;46042;49.444;6.862;2022-07-21T12:53:32;99051.91;;;30.80;43.60
60170;BME280;46042;49.444;6.862;2022-07-21T12:56:00;99048.81;;;30.95;39.55
60170;BME280;46042;49.444;6.862;2022-07-21T12:58:27;99045.28;;;30.94;41.78
60170;BME280;46042;49.444;6.862;2022-07-21T13:00:54;99040.56;;;30.32;37.77
60170;BME280;46042;49.444;6.862;2022-07-21T13:03:21;99053.00;;;29.30;41.61
60170;BME280;46042;49.444;6.862;2022-07-21T13:05:55;99039.84;;;29.27;42.13
60170;BME280;46042;49.444;6.862;2022-07-21T13:08:23;99050.78;;;28.66;42.82
60170;BME280;46042;49.444;6.862;2022-07-21T13:10:53;99059.25;;;28.03;43.85
60170;BME280;46042;49.444;6.862;2022-07-21T13:13:19;99047.47;;;28.37;43.78
60170;BME280;46042;49.444;6.862;2022-07-21T13:15:46;99049.97;;;28.73;43.03
60170;BME280;46042;49.444;6.862;2022-07-21T13:18:13;99039.41;;;29.37;44.55
60170;BME280;46042;49.444;6.862;2022-07-21T13:20:40;99029.25;;;30.35;39.72
60170;BME280;46042;49.444;6.862;2022-07-21T13:23:07;99022.84;;;31.18;39.40
60170;BME280;46042;49.444;6.862;2022-07-21T13:25:36;99030.16;;;31.55;39.50
60170;BME280;46042;49.444;6.862;2022-07-21T13:28:03;99025.66;;;31.11;36.85
60170;BME280;46042;49.444;6.862;2022-07-21T13:30:30;99032.09;;;30.47;35.78
60170;BME280;46042;49.444;6.862;2022-07-21T13:32:56;99028.81;;;31.45;42.33
60170;BME280;46042;49.444;6.862;2022-07-21T13:35:23;99026.34;;;31.25;36.06
60170;BME280;46042;49.444;6.862;2022-07-21T13:37:57;99023.25;;;30.77;36.64
60170;BME280;46042;49.444;6.862;2022-07-21T13:40:25;99024.72;;;31.17;36.47
60170;BME280;46042;49.444;6.862;2022-07-21T13:43:12;99024.09;;;29.56;37.16
60170;BME280;46042;49.444;6.862;2022-07-21T13:46:01;99019.81;;;30.13;38.16
60170;BME280;46042;49.444;6.862;2022-07-21T13:48:27;99016.06;;;30.14;37.78
60170;BME280;46042;49.444;6.862;2022-07-21T13:50:54;99033.44;;;30.63;36.19
60170;BME280;46042;49.444;6.862;2022-07-21T13:53:21;99029.88;;;30.63;35.00
60170;BME280;46042;49.444;6.862;2022-07-21T13:55:47;99032.56;;;30.88;36.70
60170;BME280;46042;49.444;6.862;2022-07-21T13:58:17;99020.41;;;30.91;35.96
60170;BME280;46042;49.444;6.862;2022-07-21T14:00:43;99022.59;;;31.19;35.80